Time;durP1;ratioP1;P1;durP2;ratioP2;P2;SDS_P1;SDS_P2;PMS_P1;PMS_P2;Temp;Humidity;BMP_temperature;BMP_pressure;BME280_temperature;BME280_humidity;BME280_pressure;Samples;Min_cycle;Max_cycle;Signal;HPM_P1;HPM_P2
2023/02/17 05:30:43;;;;;;;10.57;4.75;;;13.40;85.90;;;;;;6103139;23;20029;-77
2023/02/17 05:33:08;;;;;;;13.07;5.90;;;13.50;85.80;;;;;;6126668;23;20319;-75
2023/02/17 05:35:34;;;;;;;7.93;4.40;;;13.50;85.80;;;;;;6129033;23;20089;-76
2023/02/17 05:38:00;;;;;;;8.40;4.15;;;13.40;85.60;;;;;;6129268;23;19998;-76
2023/02/17 05:40:26;;;;;;;11.25;5.32;;;13.40;86.00;;;;;;6103955;23;20323;-76
2023/02/17 05:42:51;;;;;;;7.93;3.70;;;13.50;85.90;;;;;;6129672;23;20005;-76
2023/02/17 05:45:17;;;;;;;8.20;4.35;;;13.50;85.80;;;;;;6129939;23;20002;-75
2023/02/17 05:47:43;;;;;;;9.00;4.25;;;13.50;85.80;;;;;;6129090;23;20709;-77
2023/02/17 05:50:09;;;;;;;7.97;3.58;;;13.50;85.70;;;;;;6129580;23;20461;-81
2023/02/17 05:52:35;;;;;;;7.05;4.60;;;13.60;85.50;;;;;;6129828;23;20009;-80
2023/02/17 05:55:02;;;;;;;9.65;4.35;;;13.60;85.40;;;;;;6130163;23;20010;-80
2023/02/17 05:57:27;;;;;;;7.53;3.65;;;13.60;85.30;;;;;;6129762;23;20002;-83
2023/02/17 05:59:53;;;;;;;9.60;4.35;;;13.60;85.20;;;;;;6128959;23;20030;-81
2023/02/17 06:02:19;;;;;;;7.47;3.30;;;13.60;85.30;;;;;;6127366;23;20393;-81
2023/02/17 06:04:45;;;;;;;7.63;3.80;;;13.60;85.30;;;;;;6129493;23;20318;-81
2023/02/17 06:07:14;;;;;;;9.80;3.22;;;13.60;85.30;;;;;;6129790;23;20002;-79
2023/02/17 06:09:39;;;;;;;6.63;3.45;;;13.60;85.20;;;;;;6103113;23;20016;-79
2023/02/17 06:12:05;;;;;;;7.82;4.00;;;13.60;85.10;;;;;;6129400;23;20006;-78
2023/02/17 06:14:31;;;;;;;5.50;3.17;;;13.60;85.20;;;;;;6130083;23;20006;-79
2023/02/17 06:16:57;;;;;;;10.57;3.83;;;13.60;85.10;;;;;;6129691;23;20034;-78
2023/02/17 06:19:23;;;;;;;6.70;3.55;;;13.60;85.10;;;;;;6129838;23;20040;-83
2023/02/17 06:21:49;;;;;;;7.07;3.65;;;13.60;85.10;;;;;;6129055;23;20316;-78
2023/02/17 06:24:14;;;;;;;7.00;3.10;;;13.60;85.10;;;;;;6104007;23;20013;-77
2023/02/17 06:26:40;;;;;;;5.85;3.35;;;13.60;84.90;;;;;;6103657;23;20006;-77
2023/02/17 06:29:06;;;;;;;5.85;3.45;;;13.60;85.10;;;;;;6129924;23;20085;-77
2023/02/17 06:31:32;;;;;;;7.28;3.65;;;13.60;84.90;;;;;;6128519;23;20048;-77
2023/02/17 06:33:58;;;;;;;5.57;2.47;;;13.50;85.00;;;;;;6102902;23;20093;-77
2023/02/17 06:36:23;;;;;;;5.85;3.15;;;13.50;84.90;;;;;;6103043;23;20066;-77
2023/02/17 06:38:49;;;;;;;6.97;2.90;;;13.60;84.90;;;;;;6103830;23;20017;-77
2023/02/17 06:41:15;;;;;;;8.77;3.53;;;13.50;84.80;;;;;;6103518;23;20037;-77
2023/02/17 06:43:40;;;;;;;6.07;3.10;;;13.60;84.80;;;;;;6129648;23;20423;-77
2023/02/17 06:46:06;;;;;;;5.63;3.03;;;13.50;84.90;;;;;;6129318;23;19998;-77
2023/02/17 06:48:32;;;;;;;7.20;3.55;;;13.60;84.90;;;;;;6129271;23;20025;-77
2023/02/17 06:50:59;;;;;;;5.28;2.95;;;13.60;84.80;;;;;;6036117;23;20142;-78
2023/02/17 06:53:25;;;;;;;6.63;3.35;;;13.60;84.80;;;;;;6074711;23;20013;-78
2023/02/17 06:55:50;;;;;;;6.57;3.10;;;13.60;84.70;;;;;;6128067;23;20002;-78
2023/02/17 06:58:16;;;;;;;3.88;2.65;;;13.60;84.60;;;;;;6129263;23;20061;-78
2023/02/17 07:00:42;;;;;;;5.45;2.95;;;13.60;84.70;;;;;;6098469;23;20096;-79
2023/02/17 07:03:07;;;;;;;5.22;3.10;;;13.70;84.60;;;;;;6129021;23;20005;-79
2023/02/17 07:05:36;;;;;;;6.38;2.95;;;13.60;84.70;;;;;;6128440;23;20002;-79
2023/02/17 07:08:03;;;;;;;5.43;3.13;;;13.60;84.60;;;;;;6102683;23;20009;-79
2023/02/17 07:10:29;;;;;;;6.85;2.50;;;13.70;84.70;;;;;;6128632;23;20010;-78
2023/02/17 07:12:55;;;;;;;5.55;3.20;;;13.70;84.70;;;;;;6102990;23;20069;-78
2023/02/17 07:15:23;;;;;;;5.55;2.60;;;13.70;84.70;;;;;;6128442;23;20002;-79
2023/02/17 07:17:48;;;;;;;6.25;2.65;;;13.70;84.70;;;;;;6128044;23;20410;-79
2023/02/17 07:20:14;;;;;;;5.45;2.78;;;13.60;84.90;;;;;;6127606;23;20014;-79
2023/02/17 07:22:43;;;;;;;4.88;2.83;;;13.60;84.90;;;;;;6123806;23;20439;-79
2023/02/17 07:25:08;;;;;;;4.88;2.78;;;13.60;84.80;;;;;;6128955;23;19998;-77
2023/02/17 07:27:37;;;;;;;5.00;2.53;;;13.70;84.80;;;;;;6124931;23;20554;-77
2023/02/17 07:30:04;;;;;;;3.63;2.50;;;13.70;84.90;;;;;;6128739;23;20006;-77
2023/02/17 07:32:30;;;;;;;5.82;2.92;;;13.70;84.90;;;;;;6127494;23;20093;-77
2023/02/17 07:34:56;;;;;;;6.18;2.70;;;13.70;84.90;;;;;;6102052;23;20458;-78
2023/02/17 07:37:33;;;;;;;6.35;3.42;;;13.70;84.80;;;;;;6126400;23;20068;-79
2023/02/17 07:40:39;;;;;;;5.78;4.28;;;13.70;84.90;;;;;;6127173;23;20008;-78
2023/02/17 07:43:04;;;;;;;8.48;3.78;;;13.70;84.70;;;;;;6128605;23;20002;-79
2023/02/17 07:45:29;;;;;;;8.70;4.10;;;13.70;84.70;;;;;;6102549;23;20001;-79
2023/02/17 07:48:41;;;;;;;6.72;4.22;;;13.80;84.70;;;;;;6101791;23;20005;-80
2023/02/17 07:52:02;;;;;;;8.95;4.03;;;13.80;84.60;;;;;;5986944;23;20008;-79
2023/02/17 07:57:41;;;;;;;9.25;4.90;;;13.70;84.70;;;;;;5999276;23;20062;-77
2023/02/17 08:00:08;;;;;;;9.13;5.00;;;13.80;84.60;;;;;;6126770;23;20068;-77
2023/02/17 08:02:55;;;;;;;8.52;4.90;;;13.80;84.60;;;;;;6101208;23;20029;-78
2023/02/17 08:05:20;;;;;;;6.72;4.10;;;13.80;84.60;;;;;;6127128;23;19998;-79
2023/02/17 08:07:46;;;;;;;7.72;4.30;;;13.80;84.50;;;;;;6102284;23;20350;-79
2023/02/17 08:16:29;;;;;;;7.80;4.32;;;13.90;84.50;;;;;;6133374;23;20467;-80
2023/02/17 08:21:48;;;;;;;10.07;4.22;;;13.90;84.40;;;;;;6116748;23;20453;-80
2023/02/17 08:24:15;;;;;;;5.63;3.50;;;13.90;84.40;;;;;;6106263;23;20053;-79
2023/02/17 08:27:12;;;;;;;10.45;5.18;;;13.90;84.40;;;;;;6104290;23;20234;-79
2023/02/17 08:29:37;;;;;;;7.93;4.25;;;13.90;84.60;;;;;;6092599;23;20069;-79
2023/02/17 08:32:12;;;;;;;6.68;3.78;;;13.90;84.60;;;;;;6128446;23;20433;-82
2023/02/17 08:37:27;;;;;;;8.77;3.63;;;13.90;84.60;;;;;;6128848;23;20002;-79
2023/02/17 08:39:52;;;;;;;6.82;3.75;;;13.90;84.60;;;;;;6126928;23;20033;-78
2023/02/17 08:42:18;;;;;;;7.25;3.85;;;14.00;84.50;;;;;;6126190;23;20442;-78
2023/02/17 08:44:44;;;;;;;8.85;3.90;;;14.00;84.50;;;;;;6102820;23;20036;-78
2023/02/17 08:47:10;;;;;;;5.80;3.30;;;14.00;84.50;;;;;;6128204;23;20002;-77
2023/02/17 08:49:36;;;;;;;6.35;3.25;;;14.00;84.50;;;;;;6101649;23;20446;-78
2023/02/17 08:52:02;;;;;;;4.70;2.75;;;14.10;84.50;;;;;;6126269;23;20106;-78
2023/02/17 08:54:28;;;;;;;7.28;3.03;;;14.10;84.50;;;;;;6100840;23;20010;-78
2023/02/17 08:56:53;;;;;;;5.50;3.38;;;14.00;84.50;;;;;;6101312;23;20334;-78
2023/02/17 08:59:19;;;;;;;7.00;3.80;;;14.10;84.50;;;;;;6126913;23;20013;-79
2023/02/17 09:01:45;;;;;;;5.63;3.45;;;14.10;84.50;;;;;;6101489;23;20013;-78
2023/02/17 09:04:12;;;;;;;4.55;2.72;;;14.20;84.40;;;;;;6126436;23;20067;-79
2023/02/17 09:06:42;;;;;;;8.82;3.75;;;14.20;84.30;;;;;;6121816;23;20002;-78
2023/02/17 09:09:11;;;;;;;4.70;2.70;;;14.30;84.30;;;;;;6125350;23;20501;-78
2023/02/17 09:11:37;;;;;;;5.80;3.00;;;14.20;84.20;;;;;;6099658;23;20006;-78
2023/02/17 09:14:03;;;;;;;6.30;3.10;;;14.30;84.20;;;;;;6126680;23;20002;-78
2023/02/17 09:16:29;;;;;;;7.40;3.90;;;14.30;84.20;;;;;;6099476;23;20014;-78
2023/02/17 09:18:55;;;;;;;9.38;3.45;;;14.30;84.10;;;;;;6099996;23;20024;-78
2023/02/17 09:21:21;;;;;;;5.63;3.42;;;14.20;84.20;;;;;;6127918;23;20029;-78
2023/02/17 09:23:47;;;;;;;8.95;3.45;;;14.30;84.30;;;;;;6128359;23;20001;-80
2023/02/17 09:26:15;;;;;;;7.32;4.07;;;14.30;84.20;;;;;;6130026;23;20012;-77
2023/02/17 09:28:41;;;;;;;10.10;4.10;;;14.30;84.10;;;;;;6130062;23;20005;-78
2023/02/17 09:31:11;;;;;;;10.05;3.75;;;14.40;84.00;;;;;;6124961;23;20022;-77
2023/02/17 09:33:38;;;;;;;7.32;3.38;;;14.40;84.00;;;;;;6130030;23;20006;-78
2023/02/17 09:36:06;;;;;;;7.70;3.15;;;14.40;83.90;;;;;;6130234;23;20006;-78
2023/02/17 09:38:31;;;;;;;6.40;3.50;;;14.50;83.90;;;;;;6130029;23;20009;-78
2023/02/17 09:41:13;;;;;;;4.70;3.03;;;14.50;83.80;;;;;;6103988;23;20006;-78
2023/02/17 09:43:38;;;;;;;6.45;2.95;;;14.50;83.80;;;;;;6129668;23;20379;-78
2023/02/17 09:46:40;;;;;;;4.72;2.90;;;14.50;83.60;;;;;;6129727;23;20002;-78
2023/02/17 09:49:16;;;;;;;6.22;3.75;;;14.60;83.60;;;;;;6078571;23;20006;-78
2023/02/17 09:51:57;;;;;;;7.28;4.07;;;14.70;83.30;;;;;;6130007;23;20435;-77
2023/02/17 09:54:47;;;;;;;10.27;4.55;;;14.70;83.40;;;;;;6104283;23;20010;-77
2023/02/17 09:57:19;;;;;;;9.15;4.30;;;14.70;83.30;;;;;;6103535;23;20010;-78
2023/02/17 09:59:53;;;;;;;11.63;5.07;;;14.80;82.90;;;;;;6129951;23;20013;-77
2023/02/17 10:02:44;;;;;;;8.63;4.50;;;14.70;83.10;;;;;;6129829;23;20080;-77
2023/02/17 10:05:15;;;;;;;9.07;5.00;;;14.80;83.20;;;;;;6129760;23;20029;-77
2023/02/17 10:07:48;;;;;;;12.73;5.30;;;14.80;82.80;;;;;;6129233;23;20308;-78
2023/02/17 10:10:21;;;;;;;12.93;6.47;;;14.80;82.80;;;;;;6129524;23;20089;-78
2023/02/17 10:12:52;;;;;;;10.13;5.93;;;14.80;82.80;;;;;;6129365;23;20057;-78
2023/02/17 10:15:35;;;;;;;8.55;5.03;;;14.90;82.90;;;;;;6128899;23;20382;-78
2023/02/17 10:18:05;;;;;;;9.20;4.50;;;14.90;82.70;;;;;;6103338;23;20010;-78
2023/02/17 10:20:41;;;;;;;7.05;4.00;;;14.90;82.80;;;;;;6129040;23;20010;-78
2023/02/17 10:23:21;;;;;;;6.20;3.50;;;15.00;82.70;;;;;;6104121;23;20053;-78
2023/02/17 10:26:19;;;;;;;5.40;3.20;;;15.00;82.50;;;;;;6125830;23;20009;-78
2023/02/17 10:29:19;;;;;;;5.55;3.47;;;15.10;82.40;;;;;;6128641;23;20434;-78
2023/02/17 10:31:46;;;;;;;7.72;3.67;;;15.20;82.50;;;;;;6102255;23;20454;-77
2023/02/17 10:35:02;;;;;;;6.00;3.42;;;15.20;82.40;;;;;;6128029;23;20506;-78
2023/02/17 10:37:44;;;;;;;5.82;3.30;;;15.30;82.30;;;;;;5983137;24;20485;-78
2023/02/17 10:40:18;;;;;;;5.68;2.50;;;15.30;82.10;;;;;;6088540;23;20084;-78
2023/02/17 10:42:46;;;;;;;5.30;2.97;;;15.40;82.10;;;;;;6129743;23;20008;-78
2023/02/17 10:45:24;;;;;;;6.20;3.67;;;15.40;81.90;;;;;;6128675;23;20002;-79
2023/02/17 10:47:56;;;;;;;7.75;2.90;;;15.40;81.90;;;;;;6129767;23;20005;-79
2023/02/17 10:50:24;;;;;;;6.05;3.60;;;15.40;81.90;;;;;;6129730;23;20006;-79
2023/02/17 10:52:51;;;;;;;4.43;3.08;;;15.40;81.70;;;;;;6103109;23;20010;-79
2023/02/17 10:55:43;;;;;;;7.15;3.28;;;15.40;81.70;;;;;;6103365;23;20006;-79
2023/02/17 10:58:32;;;;;;;5.43;3.00;;;15.40;81.60;;;;;;6128062;23;20006;-79
2023/02/17 11:01:01;;;;;;;4.35;2.85;;;15.60;81.70;;;;;;6128025;23;20017;-79
2023/02/17 11:03:28;;;;;;;7.47;3.58;;;15.70;81.40;;;;;;6102876;23;20010;-79
2023/02/17 11:05:59;;;;;;;4.28;2.50;;;15.70;81.20;;;;;;6128645;23;19997;-79
2023/02/17 11:08:45;;;;;;;3.58;2.35;;;15.80;81.00;;;;;;6102733;23;20145;-79
2023/02/17 11:11:13;;;;;;;6.22;2.58;;;15.90;80.70;;;;;;6103604;23;20006;-78
2023/02/17 11:13:44;;;;;;;5.38;3.20;;;15.90;80.40;;;;;;6128605;23;20009;-78
2023/02/17 11:16:33;;;;;;;3.80;2.60;;;16.00;80.40;;;;;;6102737;23;20010;-78
2023/02/17 11:19:03;;;;;;;4.73;3.20;;;16.10;80.20;;;;;;6129239;23;20490;-78
2023/02/17 11:21:29;;;;;;;4.15;2.80;;;16.30;80.10;;;;;;6128855;23;20008;-78
2023/02/17 11:23:57;;;;;;;5.70;2.63;;;16.40;79.80;;;;;;6128610;23;20021;-78
2023/02/17 11:26:26;;;;;;;4.15;2.83;;;16.50;79.20;;;;;;6103361;23;20002;-78
2023/02/17 11:28:52;;;;;;;5.95;2.72;;;16.60;78.80;;;;;;6129680;23;20002;-78
2023/02/17 11:31:30;;;;;;;5.53;2.95;;;16.70;78.80;;;;;;6128479;23;20391;-78
2023/02/17 11:33:56;;;;;;;4.25;2.28;;;16.80;78.30;;;;;;6129308;23;20582;-78
2023/02/17 11:36:27;;;;;;;5.60;2.78;;;16.80;78.20;;;;;;6103317;23;20092;-78
2023/02/17 11:38:53;;;;;;;4.95;3.28;;;16.90;77.70;;;;;;6129030;23;20501;-78
2023/02/17 11:41:21;;;;;;;4.88;2.75;;;17.00;77.70;;;;;;6129461;23;20053;-78
2023/02/17 11:43:53;;;;;;;5.00;2.72;;;17.00;77.30;;;;;;6129135;23;20012;-78
2023/02/17 11:46:54;;;;;;;6.85;2.55;;;17.10;77.30;;;;;;6129186;23;20002;-79
2023/02/17 11:50:01;;;;;;;4.97;2.55;;;17.20;77.30;;;;;;6128871;23;20006;-78
2023/02/17 11:52:51;;;;;;;3.83;2.47;;;17.30;76.80;;;;;;6057658;23;20031;-78
2023/02/17 11:55:18;;;;;;;3.25;2.17;;;17.30;76.50;;;;;;6129167;23;20080;-78
2023/02/17 11:57:49;;;;;;;3.38;2.22;;;17.30;76.20;;;;;;6128717;23;20060;-78
2023/02/17 12:00:17;;;;;;;2.65;1.85;;;17.40;76.00;;;;;;6129274;23;20006;-79
2023/02/17 12:03:13;;;;;;;4.68;2.50;;;17.50;76.00;;;;;;6129094;23;20006;-79
2023/02/17 12:05:51;;;;;;;4.32;2.25;;;17.60;75.80;;;;;;6129429;23;20002;-78
2023/02/17 12:08:37;;;;;;;3.28;2.05;;;17.60;75.20;;;;;;6128647;23;20041;-79
2023/02/17 12:11:17;;;;;;;3.88;2.17;;;17.50;75.40;;;;;;6127787;23;20009;-79
2023/02/17 12:14:15;;;;;;;4.03;2.17;;;17.60;75.30;;;;;;6102215;23;20005;-78
2023/02/17 12:17:14;;;;;;;3.13;2.10;;;17.70;75.60;;;;;;6128075;23;20002;-78
2023/02/17 12:19:59;;;;;;;4.55;2.40;;;17.70;75.30;;;;;;6127642;23;20363;-76
2023/02/17 12:22:38;;;;;;;5.80;2.58;;;17.80;74.20;;;;;;6128357;23;20442;-76
2023/02/17 12:25:26;;;;;;;3.92;2.17;;;17.90;74.90;;;;;;6128216;23;20005;-77
2023/02/17 12:28:28;;;;;;;4.22;2.50;;;17.90;74.30;;;;;;6127713;23;20005;-77
2023/02/17 12:31:36;;;;;;;5.00;2.53;;;17.90;73.80;;;;;;6128568;23;20016;-81
2023/02/17 12:34:23;;;;;;;5.57;2.42;;;18.00;74.20;;;;;;6097037;23;20430;-79
2023/02/17 12:36:50;;;;;;;4.05;2.75;;;18.10;73.80;;;;;;6126494;23;20045;-80
2023/02/17 12:39:31;;;;;;;4.03;2.65;;;18.30;73.90;;;;;;6128603;23;20057;-79
2023/02/17 12:42:18;;;;;;;4.32;2.33;;;18.30;73.80;;;;;;6123615;23;20431;-79
2023/02/17 12:44:50;;;;;;;5.35;2.55;;;18.20;73.80;;;;;;6128367;23;20002;-79
2023/02/17 12:47:33;;;;;;;3.58;2.50;;;18.10;73.70;;;;;;6128120;23;20006;-79
2023/02/17 12:50:13;;;;;;;4.65;2.53;;;18.00;73.80;;;;;;6124456;23;20005;-80
2023/02/17 12:52:43;;;;;;;4.32;2.60;;;17.90;74.00;;;;;;6102815;23;20013;-80
2023/02/17 12:55:12;;;;;;;4.22;2.65;;;17.90;74.10;;;;;;6128342;23;20452;-79
2023/02/17 12:57:54;;;;;;;3.85;2.90;;;17.80;74.20;;;;;;6127531;23;20111;-79
2023/02/17 13:00:42;;;;;;;4.15;2.83;;;17.70;74.50;;;;;;6104264;23;20016;-80
2023/02/17 13:03:08;;;;;;;3.88;2.60;;;17.70;74.20;;;;;;6130828;23;20009;-79
2023/02/17 13:06:02;;;;;;;4.53;2.55;;;17.70;75.00;;;;;;6125943;23;20033;-79
2023/02/17 13:08:32;;;;;;;4.50;2.63;;;17.70;75.00;;;;;;6101280;23;20006;-79
2023/02/17 13:11:04;;;;;;;3.95;2.75;;;17.60;75.10;;;;;;6130206;23;20481;-79
2023/02/17 13:13:32;;;;;;;4.35;2.72;;;17.50;75.10;;;;;;6103441;23;20090;-79
2023/02/17 13:16:09;;;;;;;3.17;2.10;;;17.30;75.20;;;;;;6129237;23;20006;-79
2023/02/17 13:18:37;;;;;;;4.32;2.05;;;17.30;75.70;;;;;;6104436;23;20438;-79
2023/02/17 13:21:15;;;;;;;4.53;2.65;;;17.30;75.60;;;;;;6129227;23;20007;-80
2023/02/17 13:23:44;;;;;;;4.50;3.25;;;17.30;75.40;;;;;;6129647;23;20089;-79
2023/02/17 13:26:26;;;;;;;4.07;2.70;;;17.30;75.20;;;;;;6128481;23;20008;-79
2023/02/17 13:29:05;;;;;;;3.22;2.10;;;17.30;75.10;;;;;;6104124;23;20017;-79
2023/02/17 13:31:30;;;;;;;3.78;2.33;;;17.40;75.10;;;;;;6127535;23;20030;-79
2023/02/17 13:33:58;;;;;;;4.30;2.75;;;17.50;74.80;;;;;;6127909;23;20002;-79
2023/02/17 13:36:26;;;;;;;3.55;2.60;;;17.50;75.00;;;;;;6129905;23;20073;-80
2023/02/17 13:38:56;;;;;;;7.70;3.40;;;17.50;74.80;;;;;;6129544;23;20009;-79
2023/02/17 13:41:24;;;;;;;3.92;2.40;;;17.60;74.80;;;;;;6130273;23;20006;-79
2023/02/17 13:43:50;;;;;;;5.45;3.60;;;17.70;74.40;;;;;;6129724;23;20009;-79
2023/02/17 13:46:23;;;;;;;6.93;3.15;;;17.70;74.40;;;;;;6129367;23;20002;-79
2023/02/17 13:49:01;;;;;;;3.72;2.42;;;17.70;74.20;;;;;;6128297;23;20048;-78
2023/02/17 13:51:29;;;;;;;4.18;2.70;;;17.80;74.10;;;;;;6127988;23;20026;-78
2023/02/17 13:53:55;;;;;;;4.03;2.80;;;17.80;74.40;;;;;;6128887;23;20358;-79
2023/02/17 13:56:29;;;;;;;3.53;2.55;;;17.80;74.10;;;;;;6126453;23;20036;-79
2023/02/17 13:59:10;;;;;;;3.92;2.58;;;17.80;73.60;;;;;;6128493;23;20077;-79
2023/02/17 14:01:40;;;;;;;2.95;2.42;;;17.70;74.10;;;;;;6129226;23;20386;-79
2023/02/17 14:04:24;;;;;;;4.15;2.75;;;17.60;74.30;;;;;;6129427;23;20002;-79
2023/02/17 14:06:51;;;;;;;4.72;2.67;;;17.60;74.20;;;;;;6129153;23;20059;-79
2023/02/17 14:09:31;;;;;;;4.22;2.55;;;17.50;74.50;;;;;;6103164;23;21295;-79
2023/02/17 14:12:00;;;;;;;4.70;2.70;;;17.40;74.70;;;;;;6128511;23;20002;-79
2023/02/17 14:14:32;;;;;;;5.10;2.58;;;17.40;74.50;;;;;;6128740;23;20026;-79
2023/02/17 14:17:07;;;;;;;4.55;2.63;;;17.50;74.30;;;;;;6128744;23;20013;-79
2023/02/17 14:19:45;;;;;;;4.07;2.58;;;17.40;74.40;;;;;;6127451;23;20013;-79
2023/02/17 14:22:27;;;;;;;4.32;2.45;;;17.40;74.30;;;;;;6102570;23;20097;-79
2023/02/17 14:25:06;;;;;;;3.58;2.30;;;17.50;74.60;;;;;;6128444;23;20001;-79
2023/02/17 14:27:46;;;;;;;4.22;2.20;;;17.60;73.80;;;;;;6102599;23;20020;-79
2023/02/17 14:30:14;;;;;;;3.13;2.33;;;17.60;73.80;;;;;;6124580;23;20061;-79
2023/02/17 14:32:40;;;;;;;4.10;2.90;;;17.60;74.00;;;;;;6097780;23;20349;-79
2023/02/17 14:35:18;;;;;;;5.15;2.83;;;17.70;74.00;;;;;;6127959;23;20013;-80
2023/02/17 14:37:44;;;;;;;4.75;2.63;;;17.60;74.20;;;;;;6101609;23;20045;-80
2023/02/17 14:40:22;;;;;;;4.07;2.83;;;17.50;73.70;;;;;;6122985;23;20010;-80
2023/02/17 14:42:48;;;;;;;3.63;2.63;;;17.50;74.30;;;;;;6127411;23;20073;-80
2023/02/17 14:45:14;;;;;;;3.60;2.70;;;17.50;74.00;;;;;;6099419;23;20028;-80
2023/02/17 14:47:43;;;;;;;5.75;3.10;;;17.40;74.00;;;;;;6126909;23;20011;-80
2023/02/17 14:50:10;;;;;;;3.42;2.90;;;17.30;73.90;;;;;;6125735;23;20033;-80
2023/02/17 14:52:42;;;;;;;7.50;3.38;;;17.30;74.40;;;;;;6101626;23;20010;-80
2023/02/17 14:55:21;;;;;;;5.00;3.15;;;17.30;73.70;;;;;;6128313;23;20006;-80
2023/02/17 14:57:47;;;;;;;6.20;2.65;;;17.20;74.10;;;;;;6128194;23;20006;-80
2023/02/17 15:00:14;;;;;;;4.22;2.85;;;17.20;73.80;;;;;;6120407;23;20005;-80
2023/02/17 15:02:40;;;;;;;3.58;2.38;;;17.20;74.10;;;;;;6128152;23;20002;-80
2023/02/17 15:05:06;;;;;;;4.35;2.80;;;17.20;74.30;;;;;;6102301;23;20347;-80
2023/02/17 15:07:32;;;;;;;5.75;3.10;;;17.20;73.60;;;;;;6128309;23;20383;-81
2023/02/17 15:09:58;;;;;;;5.15;2.83;;;17.20;73.80;;;;;;6128160;23;20009;-80
2023/02/17 15:12:24;;;;;;;6.10;2.72;;;17.30;73.90;;;;;;6095075;23;20009;-80
2023/02/17 15:14:49;;;;;;;5.47;3.05;;;17.30;73.60;;;;;;6124865;23;20109;-81
2023/02/17 15:17:15;;;;;;;5.32;2.47;;;17.20;73.70;;;;;;6101160;23;20087;-80
2023/02/17 15:19:44;;;;;;;5.00;2.33;;;17.20;73.90;;;;;;6100308;23;20093;-79
2023/02/17 15:22:12;;;;;;;6.30;2.73;;;17.30;73.70;;;;;;6127868;23;20013;-79
2023/02/17 15:24:38;;;;;;;4.90;3.17;;;17.30;73.60;;;;;;6128269;23;20254;-81
2023/02/17 15:27:04;;;;;;;3.53;2.50;;;17.30;73.30;;;;;;6128494;23;20028;-80
2023/02/17 15:29:30;;;;;;;5.82;2.40;;;17.40;73.30;;;;;;6102545;23;20010;-80
2023/02/17 15:31:59;;;;;;;3.35;2.30;;;17.50;73.10;;;;;;6126992;23;20073;-80
2023/02/17 15:34:33;;;;;;;3.70;1.83;;;17.40;73.20;;;;;;6128415;23;20013;-79
2023/02/17 15:37:02;;;;;;;3.65;1.60;;;17.50;73.30;;;;;;6127230;23;20002;-79
2023/02/17 15:39:28;;;;;;;2.00;1.20;;;17.50;72.80;;;;;;6120554;23;20010;-80
2023/02/17 15:41:55;;;;;;;1.75;1.05;;;17.40;72.40;;;;;;6127941;23;20009;-79
2023/02/17 15:44:35;;;;;;;2.03;1.10;;;17.30;72.10;;;;;;6124075;23;20383;-82
2023/02/17 15:47:03;;;;;;;;;;;17.30;72.10;;;;;;6127273;23;20005;-79
2023/02/17 15:49:29;;;;;;;1.55;0.90;;;17.30;72.20;;;;;;6121920;23;19974;-80
2023/02/17 15:51:54;;;;;;;2.72;1.10;;;17.30;71.70;;;;;;6125010;23;20053;-80
2023/02/17 15:54:21;;;;;;;1.45;0.95;;;17.20;71.00;;;;;;6095771;23;20798;-80
2023/02/17 15:56:50;;;;;;;1.42;0.90;;;17.20;71.80;;;;;;6126334;23;20009;-80
2023/02/17 15:59:21;;;;;;;1.85;1.00;;;17.30;72.30;;;;;;6098611;23;20049;-89
2023/02/17 16:01:54;;;;;;;2.00;0.90;;;17.30;72.20;;;;;;6130157;23;20343;-90
2023/02/17 16:04:21;;;;;;;1.90;1.10;;;17.30;71.90;;;;;;6104843;23;20061;-90
2023/02/17 16:06:46;;;;;;;3.38;1.88;;;17.20;72.30;;;;;;6123758;23;20002;-90
2023/02/17 16:09:15;;;;;;;3.58;1.13;;;17.20;71.80;;;;;;6105097;23;20077;-91
2023/02/17 16:11:56;;;;;;;2.50;0.90;;;17.20;71.90;;;;;;6130636;23;20119;-90
2023/02/17 16:14:37;;;;;;;2.47;1.13;;;17.20;72.00;;;;;;6103879;23;20013;-90
2023/02/17 16:17:10;;;;;;;2.33;1.23;;;17.20;72.20;;;;;;6100828;23;20006;-90
2023/02/17 16:19:35;;;;;;;2.40;1.50;;;17.10;71.90;;;;;;6104514;23;20017;-90
2023/02/17 16:22:01;;;;;;;3.45;1.52;;;17.10;72.40;;;;;;6103982;23;20029;-91
2023/02/17 16:24:27;;;;;;;4.03;1.25;;;17.00;72.10;;;;;;6130834;23;20423;-89
2023/02/17 16:26:53;;;;;;;2.83;1.35;;;17.00;71.80;;;;;;6130549;23;19998;-89
2023/02/17 16:29:20;;;;;;;2.42;1.50;;;17.00;72.20;;;;;;6096781;23;20089;-89
2023/02/17 16:31:47;;;;;;;2.85;1.30;;;17.00;72.20;;;;;;6121467;23;20018;-89
2023/02/17 16:34:21;;;;;;;2.00;1.50;;;17.00;72.30;;;;;;6106151;23;20443;-89
2023/02/17 16:36:49;;;;;;;2.55;1.40;;;17.00;72.40;;;;;;6129401;23;20006;-89
2023/02/17 16:39:18;;;;;;;1.48;1.13;;;16.90;72.30;;;;;;6132286;23;20446;-89
2023/02/17 16:41:45;;;;;;;2.13;1.48;;;16.90;72.60;;;;;;6131334;23;19998;-89
2023/02/17 16:44:16;;;;;;;1.40;1.10;;;16.90;72.70;;;;;;6133123;23;20002;-91
2023/02/17 16:47:01;;;;;;;2.35;1.33;;;16.90;72.70;;;;;;6133561;23;20046;-92
2023/02/17 16:49:34;;;;;;;4.00;1.83;;;16.90;73.00;;;;;;6135065;23;20002;-92
2023/02/17 16:52:20;;;;;;;2.08;1.27;;;16.90;73.00;;;;;;6110266;23;20060;-92
2023/02/17 16:54:48;;;;;;;3.53;2.28;;;16.80;72.90;;;;;;6138857;23;20465;-92
2023/02/17 16:57:19;;;;;;;2.42;1.65;;;16.80;73.20;;;;;;6106311;23;20010;-91
2023/02/17 16:59:47;;;;;;;1.90;1.20;;;16.80;73.30;;;;;;6132135;23;20041;-91
2023/02/17 17:02:13;;;;;;;2.63;1.33;;;16.80;73.40;;;;;;6137135;23;20012;-92
2023/02/17 17:04:39;;;;;;;1.83;1.33;;;16.80;73.70;;;;;;6108312;23;20007;-91
2023/02/17 17:07:05;;;;;;;3.20;1.42;;;16.80;73.60;;;;;;6133713;23;20006;-90
2023/02/17 17:09:31;;;;;;;5.00;2.47;;;16.70;73.60;;;;;;6132015;23;20017;-91
2023/02/17 17:11:56;;;;;;;4.28;2.22;;;16.70;73.40;;;;;;6105694;23;20006;-83
2023/02/17 17:14:23;;;;;;;3.70;2.13;;;16.60;73.30;;;;;;6130571;23;20006;-90
2023/02/17 17:16:54;;;;;;;5.15;2.13;;;16.60;73.70;;;;;;6130474;23;20105;-90
2023/02/17 17:19:19;;;;;;;2.08;1.40;;;16.60;73.80;;;;;;6105117;23;20010;-91
2023/02/17 17:21:46;;;;;;;2.63;1.52;;;16.50;73.60;;;;;;6103467;23;20008;-89
2023/02/17 17:24:12;;;;;;;2.25;1.45;;;16.50;73.40;;;;;;6102325;23;20006;-89
2023/02/17 17:26:42;;;;;;;1.98;1.30;;;16.50;73.90;;;;;;6128895;23;20068;-80
2023/02/17 17:29:10;;;;;;;;;;;16.50;74.00;;;;;;6102761;23;20010;-80
2023/02/17 17:31:36;;;;;;;2.42;1.40;;;16.50;74.00;;;;;;6129034;23;19921;-79
2023/02/17 17:34:01;;;;;;;2.30;1.38;;;16.50;74.10;;;;;;6129486;23;20012;-79
2023/02/17 17:36:30;;;;;;;2.42;1.40;;;16.40;74.00;;;;;;6128895;23;20002;-79
2023/02/17 17:38:57;;;;;;;2.20;1.58;;;16.40;73.80;;;;;;6128513;23;20006;-79
2023/02/17 17:41:25;;;;;;;2.72;1.58;;;16.40;74.20;;;;;;6129512;23;20002;-80
2023/02/17 17:43:51;;;;;;;4.22;1.90;;;16.30;74.40;;;;;;6129502;23;20009;-79
2023/02/17 17:46:20;;;;;;;7.10;3.53;;;16.30;74.40;;;;;;6129652;23;20012;-80
2023/02/17 17:48:47;;;;;;;4.00;2.65;;;16.30;74.40;;;;;;6129056;23;20351;-79
2023/02/17 17:51:14;;;;;;;2.85;2.15;;;16.30;74.50;;;;;;6102636;23;20006;-86
2023/02/17 17:53:41;;;;;;;2.95;1.88;;;16.30;74.50;;;;;;6114700;23;20077;-83
2023/02/17 17:56:16;;;;;;;2.33;1.88;;;16.30;74.80;;;;;;6128665;23;20009;-83
2023/02/17 17:58:42;;;;;;;3.13;2.03;;;16.30;74.70;;;;;;6103808;23;20130;-86
2023/02/17 18:01:08;;;;;;;4.35;2.40;;;16.30;74.60;;;;;;6130970;23;20042;-76
2023/02/17 18:03:34;;;;;;;3.88;2.72;;;16.20;74.90;;;;;;6127346;23;20342;-76
2023/02/17 18:06:00;;;;;;;5.40;2.95;;;16.10;75.60;;;;;;6129442;23;20013;-76
2023/02/17 18:08:26;;;;;;;4.20;2.67;;;16.00;76.20;;;;;;6129351;23;20002;-76
2023/02/17 18:10:55;;;;;;;5.63;2.53;;;16.00;76.40;;;;;;6103294;23;20064;-76
2023/02/17 18:13:21;;;;;;;3.95;2.63;;;15.90;76.50;;;;;;6129492;23;20026;-76
2023/02/17 18:15:47;;;;;;;3.67;2.60;;;15.80;76.40;;;;;;6128914;23;20115;-76
2023/02/17 18:18:13;;;;;;;4.88;3.20;;;15.80;76.70;;;;;;6129251;23;20010;-76
2023/02/17 18:20:39;;;;;;;4.38;3.00;;;15.80;76.70;;;;;;6102921;23;20038;-75
2023/02/17 18:23:04;;;;;;;4.70;2.72;;;15.90;76.60;;;;;;6129265;23;20009;-74
2023/02/17 18:25:30;;;;;;;6.60;2.80;;;15.80;76.40;;;;;;6128751;23;20021;-75
2023/02/17 18:27:56;;;;;;;7.70;3.70;;;15.80;76.50;;;;;;6102166;23;20017;-74
2023/02/17 18:30:22;;;;;;;5.55;2.10;;;15.80;76.60;;;;;;6128416;23;20076;-76
2023/02/17 18:32:49;;;;;;;4.90;2.38;;;15.70;76.20;;;;;;6126524;23;20010;-75
2023/02/17 18:35:15;;;;;;;4.53;2.55;;;15.60;76.30;;;;;;6100373;23;20016;-74
2023/02/17 18:37:41;;;;;;;4.82;2.72;;;15.50;76.60;;;;;;6101676;23;20585;-75
2023/02/17 18:40:11;;;;;;;4.13;2.65;;;15.50;76.50;;;;;;6102985;23;20017;-75
2023/02/17 18:42:37;;;;;;;3.35;2.47;;;15.50;76.60;;;;;;6128628;23;20013;-74
2023/02/17 18:45:04;;;;;;;4.65;3.10;;;15.50;76.20;;;;;;6129731;23;19998;-75
2023/02/17 18:47:30;;;;;;;4.15;2.78;;;15.50;76.50;;;;;;6128527;23;20002;-74
2023/02/17 18:49:56;;;;;;;3.67;1.95;;;15.50;76.40;;;;;;6103482;23;20012;-74
2023/02/17 18:52:21;;;;;;;3.67;2.47;;;15.50;76.40;;;;;;6128883;23;20058;-76
2023/02/17 18:54:48;;;;;;;4.35;2.70;;;15.40;76.80;;;;;;6103262;23;20056;-74